createdAt,value
2022-10-19T00:04:57.717Z,2.70
2022-10-19T00:10:02.741Z,2.80
2022-10-19T00:15:07.758Z,2.80
2022-10-19T00:20:12.364Z,3.33
2022-10-19T00:25:17.590Z,2.75
2022-10-19T00:30:21.340Z,2.33
2022-10-19T00:35:25.008Z,2.38
2022-10-19T00:40:30.008Z,2.78
2022-10-19T00:45:33.831Z,2.83
2022-10-19T00:50:37.985Z,2.65
2022-10-19T00:55:43.419Z,2.88
2022-10-19T01:00:47.407Z,2.28
2022-10-19T01:05:51.577Z,2.70
2022-10-19T01:11:11.588Z,3.17
2022-10-19T01:16:21.350Z,2.45
2022-10-19T01:21:27.304Z,2.80
2022-10-19T01:27:18.846Z,2.15
2022-10-19T01:32:28.823Z,3.13
2022-10-19T01:37:39.101Z,2.55
2022-10-19T01:42:47.532Z,2.65
2022-10-19T01:47:59.753Z,2.50
2022-10-19T01:53:05.447Z,2.35
2022-10-19T01:58:12.114Z,2.33
2022-10-19T02:03:18.241Z,2.00
2022-10-19T02:08:26.336Z,2.58
2022-10-19T02:13:31.576Z,2.38
2022-10-19T02:18:41.702Z,2.15
2022-10-19T02:23:46.176Z,2.35
2022-10-19T02:28:51.560Z,2.63
2022-10-19T02:33:56.942Z,2.25
2022-10-19T02:39:00.988Z,1.85
2022-10-19T02:44:10.278Z,2.63
2022-10-19T02:49:16.786Z,1.95
2022-10-19T02:54:20.429Z,1.65
2022-10-19T02:59:24.637Z,1.98
2022-10-19T03:04:29.634Z,1.75
2022-10-19T03:09:33.270Z,2.42
2022-10-19T03:14:38.484Z,1.83
2022-10-19T03:19:43.469Z,2.42
2022-10-19T03:24:47.121Z,2.20
2022-10-19T03:29:50.747Z,1.90
2022-10-19T03:34:55.766Z,2.08
2022-10-19T03:39:59.520Z,2.42
2022-10-19T03:45:03.403Z,1.73
2022-10-19T03:50:11.357Z,2.13
2022-10-19T03:55:15.174Z,2.40
2022-10-19T04:00:18.895Z,2.42
2022-10-19T04:05:23.936Z,2.33
2022-10-19T04:10:31.980Z,2.30
2022-10-19T04:15:35.583Z,2.13
2022-10-19T04:20:42.831Z,1.77
2022-10-19T04:25:46.545Z,2.22
2022-10-19T04:30:52.715Z,2.15
2022-10-19T04:36:00.873Z,2.23
2022-10-19T04:41:05.484Z,2.55
2022-10-19T04:46:12.125Z,2.20
2022-10-19T04:51:17.608Z,2.20
2022-10-19T04:56:23.196Z,1.58
2022-10-19T05:01:28.873Z,2.15
2022-10-19T05:06:34.220Z,1.83
2022-10-19T05:11:37.891Z,2.17
2022-10-19T05:16:44.035Z,2.17
2022-10-19T05:21:49.067Z,2.50
2022-10-19T05:26:53.224Z,1.80
2022-10-19T05:31:56.917Z,2.38
2022-10-19T05:37:02.099Z,1.48
2022-10-19T05:42:05.794Z,1.60
2022-10-19T05:47:09.436Z,2.00
2022-10-19T05:52:15.423Z,1.70
2022-10-19T05:57:19.085Z,2.10
2022-10-19T06:02:22.803Z,2.25
2022-10-19T06:07:27.814Z,2.50
2022-10-19T06:12:31.457Z,2.63
2022-10-19T06:17:35.555Z,2.58
2022-10-19T06:22:42.455Z,2.08
2022-10-19T06:27:46.829Z,2.22
2022-10-19T06:32:50.591Z,2.00
2022-10-19T06:37:57.464Z,1.90
2022-10-19T06:43:01.128Z,2.20
2022-10-19T06:48:07.595Z,2.17
2022-10-19T06:53:13.411Z,1.83
2022-10-19T06:58:17.102Z,2.40
2022-10-19T07:03:20.748Z,1.88
2022-10-19T07:08:26.595Z,2.00
2022-10-19T07:13:31.338Z,2.45
2022-10-19T07:18:36.193Z,1.80
2022-10-19T07:23:43.018Z,2.13
2022-10-19T07:28:49.187Z,2.40
2022-10-19T07:33:56.695Z,2.35
2022-10-19T07:39:03.104Z,2.72
2022-10-19T07:44:08.169Z,2.33
2022-10-19T07:49:16.297Z,2.35
2022-10-19T07:54:22.666Z,1.83
2022-10-19T07:59:26.532Z,2.40
2022-10-19T08:09:55.444Z,2.00
2022-10-19T08:14:59.178Z,2.55
2022-10-19T08:20:03.124Z,2.60
2022-10-19T08:25:08.905Z,2.42
2022-10-19T08:30:13.131Z,2.65
2022-10-19T08:35:16.976Z,3.20
2022-10-19T08:40:25.784Z,2.83
2022-10-19T08:45:44.994Z,2.90
2022-10-19T08:50:49.607Z,2.47
2022-10-19T08:56:07.383Z,2.80
2022-10-19T09:01:17.659Z,2.22
2022-10-19T09:06:27.306Z,1.92
2022-10-19T09:11:37.206Z,2.05
2022-10-19T09:16:41.026Z,2.15
2022-10-19T09:21:49.563Z,1.25
2022-10-19T09:26:56.897Z,1.45
2022-10-19T09:32:02.512Z,1.73
2022-10-19T09:37:06.520Z,1.52
2022-10-19T09:42:19.148Z,2.03
2022-10-19T09:47:35.028Z,1.42
2022-10-19T09:52:40.676Z,1.17
2022-10-19T09:57:46.468Z,1.20
2022-10-19T10:02:51.348Z,1.48
2022-10-19T10:07:56.866Z,1.40
2022-10-19T10:13:02.714Z,1.40
2022-10-19T10:18:06.515Z,1.17
2022-10-19T10:23:26.214Z,1.27
2022-10-19T10:28:31.736Z,1.13
2022-10-19T10:33:46.236Z,1.02
2022-10-19T10:38:54.144Z,1.15
2022-10-19T10:44:04.920Z,1.20
2022-10-19T10:49:16.590Z,1.27
2022-10-19T10:54:21.847Z,1.50
2022-10-19T10:59:31.659Z,1.30
2022-10-19T11:04:40.479Z,1.60
2022-10-19T11:09:47.846Z,1.42
2022-10-19T11:14:57.638Z,1.15
2022-10-19T11:20:01.295Z,1.35
2022-10-19T11:25:23.546Z,1.17
2022-10-19T11:30:29.000Z,1.60
2022-10-19T11:35:52.845Z,1.67
2022-10-19T11:41:17.479Z,1.40
2022-10-19T11:46:30.785Z,1.25
2022-10-19T11:51:39.997Z,1.60
2022-10-19T11:57:09.410Z,1.10
2022-10-19T12:02:31.878Z,1.20
2022-10-19T12:07:52.467Z,1.30
2022-10-19T12:12:59.632Z,1.70
2022-10-19T12:18:11.451Z,1.67
2022-10-19T12:23:24.398Z,1.63
2022-10-19T12:28:31.903Z,1.42
2022-10-19T12:33:47.317Z,1.60
2022-10-19T12:39:01.167Z,1.52
2022-10-19T12:44:22.354Z,1.20
2022-10-19T12:49:55.669Z,1.55
2022-10-19T12:55:27.993Z,1.50
2022-10-19T13:00:33.976Z,2.15
2022-10-19T13:05:40.676Z,1.63
2022-10-19T13:11:06.807Z,1.83
2022-10-19T13:16:49.054Z,2.20
2022-10-19T13:22:25.786Z,1.70
2022-10-19T13:27:38.739Z,1.90
2022-10-19T13:32:44.767Z,1.95
2022-10-19T13:38:08.572Z,1.83
2022-10-19T13:43:22.156Z,1.73
2022-10-19T13:48:34.616Z,1.63
2022-10-19T13:53:45.354Z,1.52
2022-10-19T13:59:21.798Z,1.65
2022-10-19T14:04:37.546Z,1.30
2022-10-19T14:10:03.229Z,1.70
2022-10-19T14:15:25.545Z,2.03
2022-10-19T14:20:32.333Z,2.22
2022-10-19T14:25:36.196Z,2.30
2022-10-19T14:30:45.346Z,1.95
2022-10-19T14:35:51.775Z,1.95
2022-10-19T14:40:56.638Z,1.90
2022-10-19T14:46:15.934Z,1.90
2022-10-19T14:51:31.101Z,1.75
2022-10-19T14:56:41.178Z,1.85
2022-10-19T15:01:51.272Z,1.88
2022-10-19T15:06:56.355Z,1.80
2022-10-19T15:12:08.475Z,1.70
2022-10-19T15:17:28.853Z,2.13
2022-10-19T15:22:41.049Z,1.85
2022-10-19T15:27:50.150Z,1.95
2022-10-19T15:33:08.940Z,1.58
2022-10-19T15:38:20.252Z,1.95
2022-10-19T15:43:45.551Z,1.60
2022-10-19T15:48:55.199Z,2.00
2022-10-19T15:54:01.160Z,1.60
2022-10-19T15:59:09.967Z,2.47
2022-10-19T16:04:15.876Z,1.92
2022-10-19T16:09:21.859Z,1.92
2022-10-19T16:14:26.493Z,1.85
2022-10-19T16:19:31.859Z,1.30
2022-10-19T16:24:35.589Z,1.63
2022-10-19T16:29:39.253Z,1.75
2022-10-19T16:34:44.301Z,2.15
2022-10-19T16:39:47.961Z,1.85
2022-10-19T16:44:51.619Z,2.10
2022-10-19T16:50:01.042Z,2.05
2022-10-19T16:55:05.171Z,2.10
2022-10-19T17:00:10.144Z,2.13
2022-10-19T17:05:15.393Z,2.03
2022-10-19T17:10:19.357Z,1.98
2022-10-19T17:15:42.114Z,2.50
2022-10-19T17:20:48.213Z,1.90
2022-10-19T17:25:51.896Z,2.25
2022-10-19T17:30:57.701Z,2.28
2022-10-19T17:36:08.019Z,2.30
2022-10-19T17:41:13.505Z,2.60
2022-10-19T17:46:23.861Z,2.47
2022-10-19T17:51:30.832Z,2.42
2022-10-19T17:56:35.604Z,1.98
2022-10-19T18:01:39.455Z,2.05
2022-10-19T18:06:44.486Z,2.05
2022-10-19T18:11:48.224Z,2.40
2022-10-19T18:16:54.744Z,2.28
2022-10-19T18:21:59.912Z,2.03
2022-10-19T18:27:03.682Z,2.22
2022-10-19T18:32:07.497Z,2.17
2022-10-19T18:37:12.996Z,2.60
2022-10-19T18:42:17.874Z,2.70
2022-10-19T18:47:22.151Z,2.72
2022-10-19T18:52:27.595Z,3.20
2022-10-19T18:57:31.958Z,1.90
2022-10-19T19:02:46.303Z,2.67
2022-10-19T19:07:52.539Z,2.15
2022-10-19T19:12:56.355Z,2.40
2022-10-19T19:18:00.037Z,2.20
2022-10-19T19:23:05.127Z,1.90
2022-10-19T19:28:08.873Z,2.33
2022-10-19T19:33:12.692Z,1.80
2022-10-19T19:38:18.026Z,2.00
2022-10-19T19:43:21.829Z,1.52
2022-10-19T19:48:25.670Z,2.10
2022-10-19T19:53:30.720Z,2.17
2022-10-19T19:58:34.476Z,2.05
2022-10-19T20:03:38.912Z,2.35
2022-10-19T20:08:44.303Z,1.92
2022-10-19T20:13:48.237Z,1.77
2022-10-19T20:18:54.913Z,1.95
2022-10-19T20:24:00.017Z,2.38
2022-10-19T20:29:04.907Z,2.17
2022-10-19T20:34:10.819Z,2.33
2022-10-19T20:39:15.937Z,2.30
2022-10-19T20:44:19.766Z,2.08
2022-10-19T20:49:26.413Z,2.00
2022-10-19T20:54:33.517Z,2.05
2022-10-19T20:59:38.762Z,1.88
2022-10-19T21:04:47.162Z,1.92
2022-10-19T21:09:52.688Z,2.15
2022-10-19T21:14:56.574Z,2.10
2022-10-19T21:20:00.290Z,2.08
2022-10-19T21:25:06.053Z,2.60
2022-10-19T21:30:10.693Z,2.70
2022-10-19T21:35:14.559Z,2.50
2022-10-19T21:40:19.653Z,3.00
2022-10-19T21:45:30.411Z,2.88
2022-10-19T21:50:34.756Z,2.63
2022-10-19T21:55:39.886Z,3.03
2022-10-19T22:00:43.717Z,3.03
2022-10-19T22:05:53.784Z,2.80
2022-10-19T22:10:58.893Z,2.95
2022-10-19T22:16:06.617Z,2.85
2022-10-19T22:21:13.725Z,2.70
2022-10-19T22:31:23.158Z,3.03
2022-10-19T22:36:27.058Z,3.25
2022-10-19T22:42:25.890Z,3.60
2022-10-19T22:47:49.495Z,3.63
2022-10-19T22:52:53.447Z,3.40
2022-10-19T22:57:58.167Z,3.10
2022-10-19T23:03:03.506Z,3.72
2022-10-19T23:08:07.431Z,3.83
2022-10-19T23:13:11.311Z,3.08
2022-10-19T23:18:16.381Z,3.90
2022-10-19T23:23:20.263Z,3.38
2022-10-19T23:28:24.114Z,3.53
2022-10-19T23:33:29.247Z,3.53
2022-10-19T23:38:32.984Z,4.05
2022-10-19T23:48:47.059Z,3.67
2022-10-19T23:53:52.627Z,3.78
2022-10-19T23:58:57.073Z,4.00
